map of KOP home
KOP - Airport
Location
City:  Nakhon Phanom, Nakhon Phanom, Thailand
Name:Nakhon Phanom West
ICAO:VTUW
IATA:KOP

Details
Type:Airport (Aerodrome, Airfield)
Latitude:1723'02"N (17.383794)
Longitude:10438'35"E (104.643022)
Datum:WGS 1984
Elevation:587 ft (179 m)
Variation:1.02W (WMM2015 magnetic declination)
-0.02 annual change
Runways:1
Longest:8203 × 148 ft (2500 × 45 m), paved

Time
Time Zone:UTC+7
Local Time:

Weather
METAR:VTUW 180400Z VRB04KT 9999 FEW048 BKN100 24/14 Q1018 NOSIG
TAF:VTUW 180500Z 1806/1906 09010KT 9999 FEW030 SCT100
BECMG 1814/1816 10005KT 9000 NSC
BECMG 1900/1902 08010KT CAVOK

Related Locations
Nearby:
Farthest:SPOY: 12301 mi / 19797 km
Atico [Atico Airport], ARE, PE

Find:

   beyond  
but within

Other Information
Maps:
NOTAMs:
Links:
Sources:

  
  • flag of Thailand
  

Sectional Chart

Flight Planning
at skyvector.com

Satellite Image

Google Maps Satellite view

 

Copyright © 2004-2019 Karl L. Swartz. All rights reserved.
The Great Circle Mapper name and logo are trademarks of the Great Circle Mapper.
All other trademarks mentioned herein belong to their respective owners.
Please see credits for attibutions and further copyright information.

  Follow gcmap on Facebook Follow gcmap on Twitter Follow gcmap on Google+ GCmap on LinkedIn

hCard Microformat

Geo Microformat